sensor_id;sensor_type;location;lat;lon;timestamp;pressure;altitude;pressure_sealevel;temperature;humidity
24486;BME280;13449;49.374;8.584;2023-05-25T00:00:13;100898.88;;;11.28;55.69
24486;BME280;13449;49.374;8.584;2023-05-25T00:02:41;100909.63;;;11.38;55.64
24486;BME280;13449;49.374;8.584;2023-05-25T00:05:12;100902.44;;;11.40;56.37
24486;BME280;13449;49.374;8.584;2023-05-25T00:07:39;100896.91;;;11.43;54.94
24486;BME280;13449;49.374;8.584;2023-05-25T00:10:07;100898.38;;;11.47;54.20
24486;BME280;13449;49.374;8.584;2023-05-25T00:12:33;100891.97;;;11.62;54.32
24486;BME280;13449;49.374;8.584;2023-05-25T00:15:04;100894.25;;;11.67;54.50
24486;BME280;13449;49.374;8.584;2023-05-25T00:17:32;100888.13;;;11.66;53.97
24486;BME280;13449;49.374;8.584;2023-05-25T00:19:59;100889.63;;;11.70;54.13
24486;BME280;13449;49.374;8.584;2023-05-25T00:22:36;100886.97;;;11.70;53.38
24486;BME280;13449;49.374;8.584;2023-05-25T00:25:04;100893.81;;;11.73;54.44
24486;BME280;13449;49.374;8.584;2023-05-25T00:27:31;100886.84;;;11.72;53.94
24486;BME280;13449;49.374;8.584;2023-05-25T00:29:58;100892.03;;;11.74;53.95
24486;BME280;13449;49.374;8.584;2023-05-25T00:32:26;100894.44;;;11.77;53.36
24486;BME280;13449;49.374;8.584;2023-05-25T00:34:53;100887.03;;;11.82;53.00
24486;BME280;13449;49.374;8.584;2023-05-25T00:37:20;100889.91;;;11.79;54.25
24486;BME280;13449;49.374;8.584;2023-05-25T00:39:46;100891.25;;;11.84;53.29
24486;BME280;13449;49.374;8.584;2023-05-25T00:42:13;100900.34;;;11.80;53.51
24486;BME280;13449;49.374;8.584;2023-05-25T00:44:43;100897.38;;;11.85;53.31
24486;BME280;13449;49.374;8.584;2023-05-25T00:47:14;100887.03;;;11.82;53.53
24486;BME280;13449;49.374;8.584;2023-05-25T00:49:44;100879.94;;;11.82;53.53
24486;BME280;13449;49.374;8.584;2023-05-25T00:52:13;100887.66;;;11.85;52.73
24486;BME280;13449;49.374;8.584;2023-05-25T00:54:40;100884.66;;;11.90;52.77
24486;BME280;13449;49.374;8.584;2023-05-25T00:57:08;100883.94;;;11.88;53.33
24486;BME280;13449;49.374;8.584;2023-05-25T00:59:41;100887.31;;;11.90;53.34
24486;BME280;13449;49.374;8.584;2023-05-25T01:02:11;100892.59;;;11.90;52.99
24486;BME280;13449;49.374;8.584;2023-05-25T01:04:52;100890.19;;;11.87;53.08
24486;BME280;13449;49.374;8.584;2023-05-25T01:07:23;100892.94;;;11.85;53.24
24486;BME280;13449;49.374;8.584;2023-05-25T01:09:56;100893.38;;;11.79;53.92
24486;BME280;13449;49.374;8.584;2023-05-25T01:12:26;100889.03;;;11.78;53.24
24486;BME280;13449;49.374;8.584;2023-05-25T01:14:55;100893.47;;;11.78;53.80
24486;BME280;13449;49.374;8.584;2023-05-25T01:17:22;100891.66;;;11.78;53.26
24486;BME280;13449;49.374;8.584;2023-05-25T01:19:48;100899.50;;;11.80;53.43
24486;BME280;13449;49.374;8.584;2023-05-25T01:22:41;100904.97;;;11.77;53.59
24486;BME280;13449;49.374;8.584;2023-05-25T01:25:13;100898.44;;;11.82;53.58
24486;BME280;13449;49.374;8.584;2023-05-25T01:27:45;100905.63;;;11.80;53.15
24486;BME280;13449;49.374;8.584;2023-05-25T01:30:15;100908.81;;;11.73;54.58
24486;BME280;13449;49.374;8.584;2023-05-25T01:32:46;100906.72;;;11.65;53.97
24486;BME280;13449;49.374;8.584;2023-05-25T01:35:15;100910.66;;;11.59;54.53
24486;BME280;13449;49.374;8.584;2023-05-25T01:37:46;100915.00;;;11.60;54.76
24486;BME280;13449;49.374;8.584;2023-05-25T01:40:15;100918.69;;;11.34;56.27
24486;BME280;13449;49.374;8.584;2023-05-25T01:42:44;100921.28;;;11.23;56.38
24486;BME280;13449;49.374;8.584;2023-05-25T01:45:12;100929.63;;;11.04;58.08
24486;BME280;13449;49.374;8.584;2023-05-25T01:47:45;100930.81;;;10.87;59.55
24486;BME280;13449;49.374;8.584;2023-05-25T01:50:21;100942.03;;;10.65;59.71
24486;BME280;13449;49.374;8.584;2023-05-25T01:55:28;100954.44;;;10.25;63.23
24486;BME280;13449;49.374;8.584;2023-05-25T01:58:00;100944.66;;;10.27;61.20
24486;BME280;13449;49.374;8.584;2023-05-25T02:00:29;100955.63;;;10.07;62.90
24486;BME280;13449;49.374;8.584;2023-05-25T02:02:59;100958.91;;;9.98;62.54
24486;BME280;13449;49.374;8.584;2023-05-25T02:05:26;100953.06;;;9.93;62.72
24486;BME280;13449;49.374;8.584;2023-05-25T02:07:53;100960.66;;;9.84;64.01
24486;BME280;13449;49.374;8.584;2023-05-25T02:10:20;100959.75;;;9.71;64.68
24486;BME280;13449;49.374;8.584;2023-05-25T02:12:46;100961.59;;;9.56;64.91
24486;BME280;13449;49.374;8.584;2023-05-25T02:15:14;100973.34;;;9.51;64.89
24486;BME280;13449;49.374;8.584;2023-05-25T02:17:41;100967.19;;;9.38;65.80
24486;BME280;13449;49.374;8.584;2023-05-25T02:20:09;100964.47;;;9.39;65.09
24486;BME280;13449;49.374;8.584;2023-05-25T02:22:36;100961.94;;;9.38;65.17
24486;BME280;13449;49.374;8.584;2023-05-25T02:25:03;100961.72;;;9.41;65.20
24486;BME280;13449;49.374;8.584;2023-05-25T02:27:30;100957.72;;;9.35;65.33
24486;BME280;13449;49.374;8.584;2023-05-25T02:29:57;100960.13;;;9.38;65.28
24486;BME280;13449;49.374;8.584;2023-05-25T02:32:26;100960.63;;;9.30;65.85
24486;BME280;13449;49.374;8.584;2023-05-25T02:34:54;100961.66;;;9.28;66.03
24486;BME280;13449;49.374;8.584;2023-05-25T02:37:21;100957.44;;;9.25;65.98
24486;BME280;13449;49.374;8.584;2023-05-25T02:39:50;100948.63;;;9.26;65.71
24486;BME280;13449;49.374;8.584;2023-05-25T02:42:16;100954.81;;;9.25;65.91
24486;BME280;13449;49.374;8.584;2023-05-25T02:44:47;100955.75;;;9.24;65.83
24486;BME280;13449;49.374;8.584;2023-05-25T02:47:14;100952.38;;;9.22;66.22
24486;BME280;13449;49.374;8.584;2023-05-25T02:49:41;100956.34;;;9.15;66.18
24486;BME280;13449;49.374;8.584;2023-05-25T02:52:08;100955.69;;;9.12;66.71
24486;BME280;13449;49.374;8.584;2023-05-25T02:54:34;100957.66;;;9.08;67.00
24486;BME280;13449;49.374;8.584;2023-05-25T02:57:02;100959.53;;;9.06;66.74
24486;BME280;13449;49.374;8.584;2023-05-25T02:59:29;100957.13;;;9.03;66.89
24486;BME280;13449;49.374;8.584;2023-05-25T03:01:57;100964.41;;;8.98;67.67
24486;BME280;13449;49.374;8.584;2023-05-25T03:04:24;100955.59;;;8.99;67.16
24486;BME280;13449;49.374;8.584;2023-05-25T03:06:51;100960.00;;;8.98;67.32
24486;BME280;13449;49.374;8.584;2023-05-25T03:09:18;100960.19;;;8.95;67.53
24486;BME280;13449;49.374;8.584;2023-05-25T03:11:47;100959.56;;;8.92;68.08
24486;BME280;13449;49.374;8.584;2023-05-25T03:14:16;100961.97;;;8.95;67.79
24486;BME280;13449;49.374;8.584;2023-05-25T03:16:42;100968.19;;;8.94;67.71
24486;BME280;13449;49.374;8.584;2023-05-25T03:19:08;100972.03;;;8.88;68.90
24486;BME280;13449;49.374;8.584;2023-05-25T03:21:38;100972.13;;;8.87;68.30
24486;BME280;13449;49.374;8.584;2023-05-25T03:24:05;100977.59;;;8.84;69.14
24486;BME280;13449;49.374;8.584;2023-05-25T03:26:32;100980.03;;;8.87;68.61
24486;BME280;13449;49.374;8.584;2023-05-25T03:28:59;100981.69;;;8.88;68.50
24486;BME280;13449;49.374;8.584;2023-05-25T03:31:25;100990.63;;;8.85;68.89
24486;BME280;13449;49.374;8.584;2023-05-25T03:33:57;100981.97;;;8.83;68.70
24486;BME280;13449;49.374;8.584;2023-05-25T03:36:23;100981.97;;;8.83;69.08
24486;BME280;13449;49.374;8.584;2023-05-25T03:38:53;100988.44;;;8.92;68.50
24486;BME280;13449;49.374;8.584;2023-05-25T03:41:20;100986.66;;;8.92;68.61
24486;BME280;13449;49.374;8.584;2023-05-25T03:43:47;100983.94;;;8.94;68.35
24486;BME280;13449;49.374;8.584;2023-05-25T03:46:13;100992.75;;;8.93;68.67
24486;BME280;13449;49.374;8.584;2023-05-25T03:48:40;100993.16;;;9.01;68.26
24486;BME280;13449;49.374;8.584;2023-05-25T03:51:06;100997.63;;;8.99;68.79
24486;BME280;13449;49.374;8.584;2023-05-25T03:53:33;100998.97;;;9.06;68.31
24486;BME280;13449;49.374;8.584;2023-05-25T03:56:02;101009.66;;;9.03;68.12
24486;BME280;13449;49.374;8.584;2023-05-25T03:58:28;101007.78;;;9.05;69.22
24486;BME280;13449;49.374;8.584;2023-05-25T04:00:55;101013.69;;;9.09;68.70
24486;BME280;13449;49.374;8.584;2023-05-25T04:03:21;101016.50;;;9.06;68.89
24486;BME280;13449;49.374;8.584;2023-05-25T04:05:48;101016.63;;;9.04;68.92
24486;BME280;13449;49.374;8.584;2023-05-25T04:08:15;101023.56;;;9.05;68.88
24486;BME280;13449;49.374;8.584;2023-05-25T04:10:45;101018.09;;;9.08;68.67
24486;BME280;13449;49.374;8.584;2023-05-25T04:13:12;101017.44;;;9.05;68.76
24486;BME280;13449;49.374;8.584;2023-05-25T04:15:39;101019.13;;;9.06;69.17
24486;BME280;13449;49.374;8.584;2023-05-25T04:18:06;101020.63;;;9.10;68.90
24486;BME280;13449;49.374;8.584;2023-05-25T04:20:32;101026.00;;;9.08;68.79
24486;BME280;13449;49.374;8.584;2023-05-25T04:22:59;101023.81;;;9.15;68.58
24486;BME280;13449;49.374;8.584;2023-05-25T04:25:26;101021.88;;;9.18;68.83
24486;BME280;13449;49.374;8.584;2023-05-25T04:27:55;101011.91;;;9.23;68.78
24486;BME280;13449;49.374;8.584;2023-05-25T04:30:22;101027.47;;;9.26;68.95
24486;BME280;13449;49.374;8.584;2023-05-25T04:32:49;101030.50;;;9.35;68.79
24486;BME280;13449;49.374;8.584;2023-05-25T04:35:15;101028.81;;;9.34;68.59
24486;BME280;13449;49.374;8.584;2023-05-25T04:37:46;101035.75;;;9.35;68.63
24486;BME280;13449;49.374;8.584;2023-05-25T04:40:13;101034.72;;;9.37;68.93
24486;BME280;13449;49.374;8.584;2023-05-25T04:42:40;101036.38;;;9.38;68.69
24486;BME280;13449;49.374;8.584;2023-05-25T04:45:07;101025.22;;;9.49;68.39
24486;BME280;13449;49.374;8.584;2023-05-25T04:47:37;101031.97;;;9.53;67.99
24486;BME280;13449;49.374;8.584;2023-05-25T04:50:09;101026.75;;;9.66;67.96
24486;BME280;13449;49.374;8.584;2023-05-25T04:52:38;101029.63;;;9.75;67.34
24486;BME280;13449;49.374;8.584;2023-05-25T04:55:05;101038.84;;;9.82;66.87
24486;BME280;13449;49.374;8.584;2023-05-25T04:57:34;101030.34;;;9.91;66.05
24486;BME280;13449;49.374;8.584;2023-05-25T05:00:04;101025.03;;;10.06;65.88
24486;BME280;13449;49.374;8.584;2023-05-25T05:02:31;101027.28;;;10.12;66.00
24486;BME280;13449;49.374;8.584;2023-05-25T05:04:57;101034.00;;;10.16;66.06
24486;BME280;13449;49.374;8.584;2023-05-25T05:07:24;101036.94;;;10.26;65.51
24486;BME280;13449;49.374;8.584;2023-05-25T05:09:51;101032.28;;;10.29;65.37
24486;BME280;13449;49.374;8.584;2023-05-25T05:12:17;101035.47;;;10.34;65.29
24486;BME280;13449;49.374;8.584;2023-05-25T05:14:46;101040.44;;;10.52;65.54
24486;BME280;13449;49.374;8.584;2023-05-25T05:17:18;101037.28;;;10.72;65.31
24486;BME280;13449;49.374;8.584;2023-05-25T05:19:44;101035.41;;;10.87;63.89
24486;BME280;13449;49.374;8.584;2023-05-25T05:22:11;101035.00;;;10.93;63.44
24486;BME280;13449;49.374;8.584;2023-05-25T05:24:42;101033.00;;;10.96;63.04
24486;BME280;13449;49.374;8.584;2023-05-25T05:27:12;101031.59;;;11.03;62.84
24486;BME280;13449;49.374;8.584;2023-05-25T05:29:41;101036.34;;;11.24;62.53
24486;BME280;13449;49.374;8.584;2023-05-25T05:32:10;101039.06;;;11.35;61.79
24486;BME280;13449;49.374;8.584;2023-05-25T05:34:36;101035.31;;;11.50;62.24
24486;BME280;13449;49.374;8.584;2023-05-25T05:37:06;101031.47;;;11.67;61.89
24486;BME280;13449;49.374;8.584;2023-05-25T05:39:32;101038.53;;;11.79;61.24
24486;BME280;13449;49.374;8.584;2023-05-25T05:41:59;101037.44;;;11.94;61.45
24486;BME280;13449;49.374;8.584;2023-05-25T05:44:26;101029.91;;;12.01;60.20
24486;BME280;13449;49.374;8.584;2023-05-25T05:46:57;101032.16;;;12.18;60.54
24486;BME280;13449;49.374;8.584;2023-05-25T05:49:29;101035.91;;;12.27;60.24
24486;BME280;13449;49.374;8.584;2023-05-25T05:51:56;101035.47;;;12.33;59.41
24486;BME280;13449;49.374;8.584;2023-05-25T05:54:23;101043.09;;;12.60;59.57
24486;BME280;13449;49.374;8.584;2023-05-25T05:56:50;101046.00;;;12.68;58.15
24486;BME280;13449;49.374;8.584;2023-05-25T05:59:20;101049.50;;;12.80;58.74
24486;BME280;13449;49.374;8.584;2023-05-25T06:01:47;101047.00;;;12.89;58.12
24486;BME280;13449;49.374;8.584;2023-05-25T06:04:13;101042.31;;;13.04;58.23
24486;BME280;13449;49.374;8.584;2023-05-25T06:06:41;101048.69;;;13.02;57.08
24486;BME280;13449;49.374;8.584;2023-05-25T06:09:08;101058.91;;;13.17;58.56
24486;BME280;13449;49.374;8.584;2023-05-25T06:11:36;101054.16;;;13.34;57.64
24486;BME280;13449;49.374;8.584;2023-05-25T06:14:02;101061.34;;;13.54;57.58
24486;BME280;13449;49.374;8.584;2023-05-25T06:16:29;101047.97;;;13.67;56.90
24486;BME280;13449;49.374;8.584;2023-05-25T06:18:56;101051.91;;;13.84;56.79
24486;BME280;13449;49.374;8.584;2023-05-25T06:21:22;101034.59;;;13.79;54.76
24486;BME280;13449;49.374;8.584;2023-05-25T06:23:49;101045.09;;;14.02;55.50
24486;BME280;13449;49.374;8.584;2023-05-25T06:26:16;101029.88;;;13.83;52.53
24486;BME280;13449;49.374;8.584;2023-05-25T06:28:44;101031.31;;;13.87;52.69
24486;BME280;13449;49.374;8.584;2023-05-25T06:31:15;101037.69;;;13.96;53.14
24486;BME280;13449;49.374;8.584;2023-05-25T06:33:41;101036.72;;;14.29;52.27
24486;BME280;13449;49.374;8.584;2023-05-25T06:36:08;101045.31;;;14.53;53.85
24486;BME280;13449;49.374;8.584;2023-05-25T06:38:41;101050.09;;;14.59;53.91
24486;BME280;13449;49.374;8.584;2023-05-25T06:41:08;101048.97;;;14.62;51.20
24486;BME280;13449;49.374;8.584;2023-05-25T06:43:37;101050.19;;;14.79;51.01
24486;BME280;13449;49.374;8.584;2023-05-25T06:46:04;101053.63;;;14.90;50.82
24486;BME280;13449;49.374;8.584;2023-05-25T06:48:30;101061.56;;;15.11;52.04
24486;BME280;13449;49.374;8.584;2023-05-25T06:50:57;101060.78;;;15.30;52.63
24486;BME280;13449;49.374;8.584;2023-05-25T06:53:26;101065.34;;;15.49;52.08
24486;BME280;13449;49.374;8.584;2023-05-25T06:55:52;101048.59;;;15.58;50.93
24486;BME280;13449;49.374;8.584;2023-05-25T06:58:19;101044.03;;;15.60;50.35
24486;BME280;13449;49.374;8.584;2023-05-25T07:00:45;101041.19;;;15.52;49.39
24486;BME280;13449;49.374;8.584;2023-05-25T07:03:12;101038.81;;;15.49;50.43
24486;BME280;13449;49.374;8.584;2023-05-25T07:05:38;101040.34;;;15.51;49.84
24486;BME280;13449;49.374;8.584;2023-05-25T07:08:08;101053.16;;;15.67;50.09
24486;BME280;13449;49.374;8.584;2023-05-25T07:10:34;101042.34;;;15.59;48.96
24486;BME280;13449;49.374;8.584;2023-05-25T07:13:01;101043.94;;;15.81;50.51
24486;BME280;13449;49.374;8.584;2023-05-25T07:15:30;101034.44;;;15.78;49.13
24486;BME280;13449;49.374;8.584;2023-05-25T07:17:56;101032.50;;;15.80;49.14
24486;BME280;13449;49.374;8.584;2023-05-25T07:20:23;101026.34;;;15.99;49.25
24486;BME280;13449;49.374;8.584;2023-05-25T07:22:50;101034.75;;;15.95;48.38
24486;BME280;13449;49.374;8.584;2023-05-25T07:25:18;101031.06;;;15.76;48.13
24486;BME280;13449;49.374;8.584;2023-05-25T07:27:48;101038.25;;;16.14;49.03
24486;BME280;13449;49.374;8.584;2023-05-25T07:30:17;101043.41;;;16.55;51.53
24486;BME280;13449;49.374;8.584;2023-05-25T07:32:44;101037.66;;;16.50;47.78
24486;BME280;13449;49.374;8.584;2023-05-25T07:35:10;101029.16;;;16.46;48.30
24486;BME280;13449;49.374;8.584;2023-05-25T07:37:37;101036.69;;;16.51;47.83
24486;BME280;13449;49.374;8.584;2023-05-25T07:40:04;101033.34;;;16.58;47.42
24486;BME280;13449;49.374;8.584;2023-05-25T07:42:31;101032.78;;;16.45;47.68
24486;BME280;13449;49.374;8.584;2023-05-25T07:45:02;101031.22;;;16.62;47.56
24486;BME280;13449;49.374;8.584;2023-05-25T07:47:29;101035.16;;;16.38;47.71
24486;BME280;13449;49.374;8.584;2023-05-25T07:49:55;101034.31;;;16.67;47.79
24486;BME280;13449;49.374;8.584;2023-05-25T07:52:22;101041.16;;;16.79;48.26
24486;BME280;13449;49.374;8.584;2023-05-25T07:54:49;101042.00;;;17.17;49.97
24486;BME280;13449;49.374;8.584;2023-05-25T07:57:15;101026.69;;;17.28;47.56
24486;BME280;13449;49.374;8.584;2023-05-25T07:59:42;101029.91;;;17.32;46.74
24486;BME280;13449;49.374;8.584;2023-05-25T08:02:10;101028.28;;;17.49;47.27
24486;BME280;13449;49.374;8.584;2023-05-25T08:04:36;101030.28;;;17.64;46.06
24486;BME280;13449;49.374;8.584;2023-05-25T08:07:03;101015.44;;;17.62;45.03
24486;BME280;13449;49.374;8.584;2023-05-25T08:09:30;101016.75;;;17.58;45.81
24486;BME280;13449;49.374;8.584;2023-05-25T08:11:56;101009.03;;;17.82;46.48
24486;BME280;13449;49.374;8.584;2023-05-25T08:14:46;101015.75;;;17.86;46.74
24486;BME280;13449;49.374;8.584;2023-05-25T08:17:13;101012.47;;;17.92;45.95
24486;BME280;13449;49.374;8.584;2023-05-25T08:19:39;101011.47;;;17.93;43.89
24486;BME280;13449;49.374;8.584;2023-05-25T08:22:08;101011.31;;;18.13;44.37
24486;BME280;13449;49.374;8.584;2023-05-25T08:24:35;101013.00;;;18.32;45.81
24486;BME280;13449;49.374;8.584;2023-05-25T08:27:01;101012.41;;;18.46;45.75
24486;BME280;13449;49.374;8.584;2023-05-25T08:29:30;101005.06;;;18.22;42.83
24486;BME280;13449;49.374;8.584;2023-05-25T08:31:56;100996.53;;;18.36;43.09
24486;BME280;13449;49.374;8.584;2023-05-25T08:34:23;101004.50;;;18.54;42.53
24486;BME280;13449;49.374;8.584;2023-05-25T08:36:50;101009.03;;;18.79;42.78
24486;BME280;13449;49.374;8.584;2023-05-25T08:39:16;101005.16;;;18.74;42.94
24486;BME280;13449;49.374;8.584;2023-05-25T08:41:47;101006.16;;;19.07;44.06
24486;BME280;13449;49.374;8.584;2023-05-25T08:44:17;101000.53;;;19.10;42.50
24486;BME280;13449;49.374;8.584;2023-05-25T08:46:47;101002.22;;;19.11;42.38
24486;BME280;13449;49.374;8.584;2023-05-25T08:49:16;100996.28;;;19.33;42.62
24486;BME280;13449;49.374;8.584;2023-05-25T08:54:18;101002.97;;;19.37;40.84
24486;BME280;13449;49.374;8.584;2023-05-25T08:56:52;101001.09;;;19.64;42.27
24486;BME280;13449;49.374;8.584;2023-05-25T08:59:27;100992.94;;;19.31;40.42
24486;BME280;13449;49.374;8.584;2023-05-25T09:02:04;100995.75;;;19.72;41.18
24486;BME280;13449;49.374;8.584;2023-05-25T09:04:34;100996.63;;;19.81;41.48
24486;BME280;13449;49.374;8.584;2023-05-25T09:07:01;100990.09;;;19.75;40.62
24486;BME280;13449;49.374;8.584;2023-05-25T09:09:37;101001.47;;;19.85;41.74
24486;BME280;13449;49.374;8.584;2023-05-25T09:12:07;100993.09;;;19.80;40.35
24486;BME280;13449;49.374;8.584;2023-05-25T09:14:36;100993.44;;;19.85;39.96
24486;BME280;13449;49.374;8.584;2023-05-25T09:17:14;100986.41;;;19.84;39.36
24486;BME280;13449;49.374;8.584;2023-05-25T09:19:42;100995.09;;;19.86;39.62
24486;BME280;13449;49.374;8.584;2023-05-25T09:22:10;101003.13;;;19.86;40.51
24486;BME280;13449;49.374;8.584;2023-05-25T09:24:44;100996.94;;;19.86;40.57
24486;BME280;13449;49.374;8.584;2023-05-25T09:27:16;101005.53;;;20.22;41.67
24486;BME280;13449;49.374;8.584;2023-05-25T09:29:43;100993.16;;;20.45;40.85
24486;BME280;13449;49.374;8.584;2023-05-25T09:32:12;100995.50;;;20.56;40.73
24486;BME280;13449;49.374;8.584;2023-05-25T09:34:38;100992.78;;;20.64;40.68
24486;BME280;13449;49.374;8.584;2023-05-25T09:37:15;100990.78;;;20.75;40.16
24486;BME280;13449;49.374;8.584;2023-05-25T09:39:43;100984.09;;;20.62;38.72
24486;BME280;13449;49.374;8.584;2023-05-25T09:42:10;100986.78;;;20.30;38.89
24486;BME280;13449;49.374;8.584;2023-05-25T09:44:38;100989.31;;;20.23;39.97
24486;BME280;13449;49.374;8.584;2023-05-25T09:47:08;100992.31;;;20.61;40.08
24486;BME280;13449;49.374;8.584;2023-05-25T09:49:34;100984.59;;;20.33;39.20
24486;BME280;13449;49.374;8.584;2023-05-25T09:52:01;100987.44;;;20.64;39.41
24486;BME280;13449;49.374;8.584;2023-05-25T09:54:28;100994.78;;;20.79;40.63
24486;BME280;13449;49.374;8.584;2023-05-25T09:56:54;100982.56;;;20.84;38.66
24486;BME280;13449;49.374;8.584;2023-05-25T09:59:21;100986.56;;;20.80;38.76
24486;BME280;13449;49.374;8.584;2023-05-25T10:01:51;100980.38;;;20.80;38.65
24486;BME280;13449;49.374;8.584;2023-05-25T10:04:25;100986.19;;;21.00;38.60
24486;BME280;13449;49.374;8.584;2023-05-25T10:06:54;100985.19;;;21.01;39.20
24486;BME280;13449;49.374;8.584;2023-05-25T10:09:25;101004.31;;;21.37;41.04
24486;BME280;13449;49.374;8.584;2023-05-25T10:11:55;100992.03;;;21.50;38.35
24486;BME280;13449;49.374;8.584;2023-05-25T10:14:25;100994.31;;;21.31;38.29
24486;BME280;13449;49.374;8.584;2023-05-25T10:16:58;100996.16;;;21.22;38.38
24486;BME280;13449;49.374;8.584;2023-05-25T10:22:04;100996.16;;;21.22;39.64
24486;BME280;13449;49.374;8.584;2023-05-25T10:27:17;100989.13;;;21.21;38.70
24486;BME280;13449;49.374;8.584;2023-05-25T10:29:51;100997.78;;;21.39;38.19
24486;BME280;13449;49.374;8.584;2023-05-25T10:32:18;100996.34;;;21.12;38.88
24486;BME280;13449;49.374;8.584;2023-05-25T10:34:45;100999.41;;;21.48;40.38
24486;BME280;13449;49.374;8.584;2023-05-25T10:37:13;100995.81;;;21.25;38.12
24486;BME280;13449;49.374;8.584;2023-05-25T10:39:41;100987.16;;;21.07;38.97
24486;BME280;13449;49.374;8.584;2023-05-25T10:42:13;100985.94;;;21.34;39.03
24486;BME280;13449;49.374;8.584;2023-05-25T10:44:41;100993.88;;;21.50;39.50
24486;BME280;13449;49.374;8.584;2023-05-25T10:47:08;100986.00;;;21.48;39.16
24486;BME280;13449;49.374;8.584;2023-05-25T10:49:51;100985.28;;;21.63;39.27
24486;BME280;13449;49.374;8.584;2023-05-25T10:52:19;100978.53;;;21.67;39.54
24486;BME280;13449;49.374;8.584;2023-05-25T10:54:48;100989.19;;;21.44;39.02
24486;BME280;13449;49.374;8.584;2023-05-25T10:57:21;100994.19;;;21.55;40.12
24486;BME280;13449;49.374;8.584;2023-05-25T10:59:50;100992.72;;;21.44;39.22
24486;BME280;13449;49.374;8.584;2023-05-25T11:02:20;100985.84;;;21.50;39.48
24486;BME280;13449;49.374;8.584;2023-05-25T11:04:49;100984.56;;;21.69;39.58
24486;BME280;13449;49.374;8.584;2023-05-25T11:07:19;100989.47;;;21.57;39.30
24486;BME280;13449;49.374;8.584;2023-05-25T11:09:57;100985.09;;;21.33;39.60
24486;BME280;13449;49.374;8.584;2023-05-25T11:12:28;100989.00;;;21.76;39.88
24486;BME280;13449;49.374;8.584;2023-05-25T11:15:13;100989.00;;;21.76;39.30
24486;BME280;13449;49.374;8.584;2023-05-25T11:17:45;100984.63;;;21.83;40.11
24486;BME280;13449;49.374;8.584;2023-05-25T11:20:24;100987.13;;;21.62;38.54
24486;BME280;13449;49.374;8.584;2023-05-25T11:22:53;100980.81;;;21.78;39.99
24486;BME280;13449;49.374;8.584;2023-05-25T11:25:41;100974.59;;;21.77;39.39
24486;BME280;13449;49.374;8.584;2023-05-25T11:28:08;100980.34;;;21.97;39.17
24486;BME280;13449;49.374;8.584;2023-05-25T11:30:39;100969.88;;;22.10;39.14
24486;BME280;13449;49.374;8.584;2023-05-25T11:33:06;100959.81;;;22.04;38.47
24486;BME280;13449;49.374;8.584;2023-05-25T11:35:35;100963.38;;;22.05;38.55
24486;BME280;13449;49.374;8.584;2023-05-25T11:38:08;100966.28;;;21.95;38.64
24486;BME280;13449;49.374;8.584;2023-05-25T11:40:35;100959.59;;;22.14;39.50
24486;BME280;13449;49.374;8.584;2023-05-25T11:43:09;100958.72;;;22.36;39.59
24486;BME280;13449;49.374;8.584;2023-05-25T11:45:36;100960.19;;;22.24;38.32
24486;BME280;13449;49.374;8.584;2023-05-25T11:48:04;100952.81;;;22.26;38.50
24486;BME280;13449;49.374;8.584;2023-05-25T11:50:31;100956.34;;;22.41;39.01
24486;BME280;13449;49.374;8.584;2023-05-25T11:53:03;100946.53;;;22.49;38.09
24486;BME280;13449;49.374;8.584;2023-05-25T11:55:31;100948.84;;;22.52;38.06
24486;BME280;13449;49.374;8.584;2023-05-25T11:57:57;100946.31;;;22.35;37.68
24486;BME280;13449;49.374;8.584;2023-05-25T12:00:25;100950.22;;;22.33;37.75
24486;BME280;13449;49.374;8.584;2023-05-25T12:02:53;100945.66;;;22.19;37.30
24486;BME280;13449;49.374;8.584;2023-05-25T12:05:20;100953.78;;;22.63;39.92
24486;BME280;13449;49.374;8.584;2023-05-25T12:07:46;100949.16;;;22.86;39.00
24486;BME280;13449;49.374;8.584;2023-05-25T12:10:14;100935.59;;;22.50;37.18
24486;BME280;13449;49.374;8.584;2023-05-25T12:12:51;100947.63;;;22.54;38.01
24486;BME280;13449;49.374;8.584;2023-05-25T12:15:22;100946.75;;;22.62;38.55
24486;BME280;13449;49.374;8.584;2023-05-25T12:17:50;100935.72;;;22.86;38.29
24486;BME280;13449;49.374;8.584;2023-05-25T12:20:17;100929.16;;;22.74;37.37
24486;BME280;13449;49.374;8.584;2023-05-25T12:22:45;100929.22;;;22.81;36.56
24486;BME280;13449;49.374;8.584;2023-05-25T12:25:13;100917.66;;;22.80;36.85
24486;BME280;13449;49.374;8.584;2023-05-25T12:27:41;100926.66;;;22.87;37.65
24486;BME280;13449;49.374;8.584;2023-05-25T12:30:08;100918.50;;;22.66;37.06
24486;BME280;13449;49.374;8.584;2023-05-25T12:32:59;100921.56;;;22.92;37.16
24486;BME280;13449;49.374;8.584;2023-05-25T12:35:44;100920.53;;;22.79;37.08
24486;BME280;13449;49.374;8.584;2023-05-25T12:38:13;100919.53;;;22.94;36.88
24486;BME280;13449;49.374;8.584;2023-05-25T12:40:41;100924.44;;;23.06;37.04
24486;BME280;13449;49.374;8.584;2023-05-25T12:43:08;100922.09;;;23.02;36.67
24486;BME280;13449;49.374;8.584;2023-05-25T12:45:41;100926.19;;;22.98;37.79
24486;BME280;13449;49.374;8.584;2023-05-25T12:48:10;100919.53;;;22.94;36.41
24486;BME280;13449;49.374;8.584;2023-05-25T12:50:37;100920.59;;;23.15;37.06
24486;BME280;13449;49.374;8.584;2023-05-25T12:53:04;100919.63;;;22.86;35.78
24486;BME280;13449;49.374;8.584;2023-05-25T12:55:32;100920.25;;;23.03;36.15
24486;BME280;13449;49.374;8.584;2023-05-25T12:58:05;100920.44;;;23.01;36.60
24486;BME280;13449;49.374;8.584;2023-05-25T13:00:33;100917.91;;;23.15;36.34
24486;BME280;13449;49.374;8.584;2023-05-25T13:03:00;100913.19;;;23.17;36.67
24486;BME280;13449;49.374;8.584;2023-05-25T13:05:31;100915.44;;;23.35;36.86
24486;BME280;13449;49.374;8.584;2023-05-25T13:08:00;100909.91;;;22.85;36.02
24486;BME280;13449;49.374;8.584;2023-05-25T13:10:31;100922.78;;;23.05;36.48